createdAt,value
2022-11-03T00:01:38.617Z,18.80
2022-11-03T00:04:07.924Z,18.80
2022-11-03T00:06:35.967Z,18.80
2022-11-03T00:09:06.832Z,18.80
2022-11-03T00:11:35.810Z,18.80
2022-11-03T00:14:05.057Z,18.70
2022-11-03T00:16:33.932Z,18.70
2022-11-03T00:19:03.754Z,18.70
2022-11-03T00:21:32.141Z,18.70
2022-11-03T00:24:02.500Z,18.70
2022-11-03T00:26:31.903Z,18.70
2022-11-03T00:29:01.808Z,18.60
2022-11-03T00:31:32.217Z,18.60
2022-11-03T00:34:01.532Z,18.60
2022-11-03T00:36:32.957Z,18.60
2022-11-03T00:39:01.393Z,18.60
2022-11-03T00:42:00.181Z,18.60
2022-11-03T00:44:28.557Z,18.50
2022-11-03T00:46:57.581Z,18.50
2022-11-03T00:49:25.831Z,18.60
2022-11-03T00:51:55.522Z,18.50
2022-11-03T00:54:23.772Z,18.50
2022-11-03T00:56:52.055Z,18.50
2022-11-03T01:02:51.380Z,18.50
2022-11-03T01:05:37.070Z,18.50
2022-11-03T01:08:07.607Z,18.50
2022-11-03T01:10:59.416Z,18.50
2022-11-03T01:13:27.737Z,18.50
2022-11-03T01:15:59.636Z,18.50
2022-11-03T01:18:27.933Z,18.50
2022-11-03T01:20:57.077Z,18.50
2022-11-03T01:23:26.760Z,18.50
2022-11-03T01:25:54.985Z,18.50
2022-11-03T01:28:23.273Z,18.50
2022-11-03T01:30:51.584Z,18.50
2022-11-03T01:33:19.806Z,18.40
2022-11-03T01:35:48.066Z,18.40
2022-11-03T01:38:16.384Z,18.40
2022-11-03T01:40:46.035Z,18.40
2022-11-03T01:43:18.121Z,18.40
2022-11-03T01:45:48.716Z,18.40
2022-11-03T01:48:20.048Z,18.40
2022-11-03T01:50:50.069Z,18.30
2022-11-03T01:53:19.533Z,18.30
2022-11-03T01:55:51.993Z,18.30
2022-11-03T01:58:23.293Z,18.30
2022-11-03T02:00:55.008Z,18.30
2022-11-03T02:03:24.470Z,18.30
2022-11-03T02:05:54.061Z,18.30
2022-11-03T02:08:26.199Z,18.20
2022-11-03T02:10:55.960Z,18.20
2022-11-03T02:13:26.678Z,18.20
2022-11-03T02:15:58.329Z,18.10
2022-11-03T02:18:31.055Z,18.10
2022-11-03T02:21:12.700Z,18.10
2022-11-03T02:23:44.789Z,18.10
2022-11-03T02:26:16.732Z,18.10
2022-11-03T02:28:45.102Z,18.10
2022-11-03T02:31:17.929Z,18.00
2022-11-03T02:33:53.024Z,18.00
2022-11-03T02:36:25.551Z,18.00
2022-11-03T02:38:59.232Z,18.00
2022-11-03T02:41:30.944Z,18.00
2022-11-03T02:43:59.581Z,18.00
2022-11-03T02:46:29.189Z,18.00
2022-11-03T02:48:57.923Z,18.00
2022-11-03T02:51:26.559Z,18.00
2022-11-03T02:54:03.644Z,18.00
2022-11-03T02:56:36.414Z,18.00
2022-11-03T02:59:10.142Z,18.00
2022-11-03T03:01:48.352Z,18.00
2022-11-03T03:04:23.836Z,17.90
2022-11-03T03:06:56.969Z,17.90
2022-11-03T03:09:29.813Z,17.90
2022-11-03T03:12:01.809Z,17.90
2022-11-03T03:14:34.865Z,17.90
2022-11-03T03:17:06.331Z,17.90
2022-11-03T03:19:49.062Z,17.90
2022-11-03T03:22:25.515Z,17.90
2022-11-03T03:24:59.104Z,17.90
2022-11-03T03:27:32.878Z,17.80
2022-11-03T03:30:04.884Z,17.80
2022-11-03T03:32:37.589Z,17.80
2022-11-03T03:35:09.589Z,17.80
2022-11-03T03:37:40.898Z,17.80
2022-11-03T03:40:13.432Z,17.80
2022-11-03T03:42:47.074Z,17.80
2022-11-03T03:45:15.861Z,17.80
2022-11-03T03:47:44.733Z,17.70
2022-11-03T03:50:13.420Z,17.70
2022-11-03T03:52:43.075Z,17.60
2022-11-03T03:55:19.403Z,17.60
2022-11-03T03:57:49.385Z,17.60
2022-11-03T04:00:19.388Z,17.60
2022-11-03T04:02:47.861Z,17.60
2022-11-03T04:05:16.296Z,17.60
2022-11-03T04:07:51.646Z,17.60
2022-11-03T04:10:22.956Z,17.50
2022-11-03T04:13:10.609Z,17.50
2022-11-03T04:15:56.280Z,17.50
2022-11-03T04:18:42.493Z,17.50
2022-11-03T04:21:30.976Z,17.50
2022-11-03T04:24:00.373Z,17.40
2022-11-03T04:26:30.128Z,17.40
2022-11-03T04:29:00.306Z,17.40
2022-11-03T04:31:31.414Z,17.40
2022-11-03T04:34:00.444Z,17.30
2022-11-03T04:36:28.808Z,17.30
2022-11-03T04:38:57.775Z,17.30
2022-11-03T04:41:29.826Z,17.30
2022-11-03T04:43:59.668Z,17.30
2022-11-03T04:46:29.383Z,17.20
2022-11-03T04:49:02.205Z,17.20
2022-11-03T04:51:34.434Z,17.20
2022-11-03T04:54:05.790Z,17.20
2022-11-03T04:56:34.925Z,17.20
2022-11-03T04:59:04.700Z,17.20
2022-11-03T05:01:33.671Z,17.20
2022-11-03T05:04:02.085Z,17.20
2022-11-03T05:06:31.425Z,17.20
2022-11-03T05:09:01.818Z,17.20
2022-11-03T05:11:33.400Z,17.10
2022-11-03T05:14:05.736Z,17.10
2022-11-03T05:16:35.059Z,17.10
2022-11-03T05:19:03.567Z,17.20
2022-11-03T05:21:31.816Z,17.20
2022-11-03T05:24:04.588Z,17.20
2022-11-03T05:26:36.180Z,17.30
2022-11-03T05:29:12.789Z,17.20
2022-11-03T05:31:43.050Z,17.30
2022-11-03T05:34:31.247Z,17.20
2022-11-03T05:37:01.463Z,17.20
2022-11-03T05:39:32.779Z,17.20
2022-11-03T05:42:01.647Z,17.20
2022-11-03T05:44:36.887Z,17.20
2022-11-03T05:47:10.410Z,17.20
2022-11-03T05:49:38.803Z,17.30
2022-11-03T05:52:13.866Z,17.30
2022-11-03T05:54:42.180Z,17.30
2022-11-03T05:57:12.874Z,17.30
2022-11-03T05:59:45.757Z,17.30
2022-11-03T06:02:33.386Z,17.40
2022-11-03T06:05:01.951Z,17.30
2022-11-03T06:07:32.837Z,17.30
2022-11-03T06:10:01.103Z,17.40
2022-11-03T06:12:31.865Z,17.40
2022-11-03T06:15:01.577Z,17.40
2022-11-03T06:17:30.695Z,17.40
2022-11-03T06:20:00.910Z,17.40
2022-11-03T06:22:32.229Z,17.40
2022-11-03T06:25:02.812Z,17.40
2022-11-03T06:27:33.351Z,17.40
2022-11-03T06:30:14.280Z,17.50
2022-11-03T06:32:42.608Z,17.40
2022-11-03T06:35:13.803Z,17.40
2022-11-03T06:37:42.469Z,17.40
2022-11-03T06:40:34.860Z,17.50
2022-11-03T06:43:15.999Z,17.50
2022-11-03T06:45:52.105Z,17.40
2022-11-03T06:48:28.925Z,17.40
2022-11-03T06:50:59.477Z,17.50
2022-11-03T06:53:30.805Z,17.50
2022-11-03T06:55:59.398Z,17.60
2022-11-03T06:58:31.431Z,17.60
2022-11-03T07:01:23.275Z,17.60
2022-11-03T07:03:53.889Z,17.60
2022-11-03T07:06:24.657Z,17.60
2022-11-03T07:08:55.292Z,17.70
2022-11-03T07:11:25.257Z,17.70
2022-11-03T07:13:55.089Z,17.80
2022-11-03T07:16:31.352Z,17.80
2022-11-03T07:19:02.525Z,17.80
2022-11-03T07:21:38.119Z,17.90
2022-11-03T07:24:16.787Z,17.90
2022-11-03T07:26:45.104Z,18.00
2022-11-03T07:29:19.743Z,18.00
2022-11-03T07:31:50.608Z,18.10
2022-11-03T07:34:24.896Z,18.10
2022-11-03T07:36:56.101Z,18.20
2022-11-03T07:39:25.012Z,18.30
2022-11-03T07:41:53.485Z,18.30
2022-11-03T07:44:22.707Z,18.30
2022-11-03T07:46:52.617Z,18.40
2022-11-03T07:49:28.660Z,18.40
2022-11-03T07:51:58.601Z,18.50
2022-11-03T07:54:30.721Z,18.50
2022-11-03T07:57:01.573Z,18.60
2022-11-03T07:59:33.768Z,18.60
2022-11-03T08:02:13.257Z,18.70
2022-11-03T08:04:41.587Z,18.80
2022-11-03T08:07:09.842Z,18.80
2022-11-03T08:09:38.328Z,18.90
2022-11-03T08:12:07.067Z,18.90
2022-11-03T08:14:35.460Z,19.00
2022-11-03T08:17:05.440Z,19.00
2022-11-03T08:19:33.723Z,19.00
2022-11-03T08:22:02.078Z,19.00
2022-11-03T08:24:30.497Z,19.00
2022-11-03T08:26:58.849Z,19.10
2022-11-03T08:29:27.422Z,19.10
2022-11-03T08:31:55.717Z,19.10
2022-11-03T08:34:25.464Z,19.10
2022-11-03T08:36:53.732Z,19.20
2022-11-03T08:39:21.986Z,19.20
2022-11-03T08:41:50.216Z,19.30
2022-11-03T08:44:18.511Z,19.30
2022-11-03T08:46:46.761Z,19.30
2022-11-03T08:49:15.012Z,19.40
2022-11-03T08:51:44.966Z,19.40
2022-11-03T08:54:13.527Z,19.50
2022-11-03T08:56:42.161Z,19.50
2022-11-03T08:59:10.382Z,19.60
2022-11-03T09:01:38.704Z,19.60
2022-11-03T09:04:07.089Z,19.70
2022-11-03T09:06:35.417Z,19.70
2022-11-03T09:11:53.408Z,19.80
2022-11-03T09:14:21.773Z,19.90
2022-11-03T09:16:50.121Z,19.90
2022-11-03T09:19:18.419Z,19.90
2022-11-03T09:21:46.720Z,20.00
2022-11-03T09:24:16.400Z,20.10
2022-11-03T09:26:44.702Z,20.10
2022-11-03T09:29:13.064Z,20.10
2022-11-03T09:31:41.336Z,20.20
2022-11-03T09:34:09.608Z,20.20
2022-11-03T09:36:38.336Z,20.30
2022-11-03T09:39:06.689Z,20.40
2022-11-03T09:41:55.780Z,20.40
2022-11-03T09:44:25.142Z,20.40
2022-11-03T09:46:57.811Z,20.40
2022-11-03T09:49:27.466Z,20.50
2022-11-03T09:51:56.830Z,20.40
2022-11-03T09:54:27.059Z,20.50
2022-11-03T09:56:59.250Z,20.50
2022-11-03T09:59:27.530Z,20.60
2022-11-03T10:01:56.193Z,20.60
2022-11-03T10:04:28.651Z,20.50
2022-11-03T10:06:58.198Z,20.60
2022-11-03T10:09:28.655Z,20.60
2022-11-03T10:11:58.389Z,20.70
2022-11-03T10:14:26.712Z,20.70
2022-11-03T10:17:00.319Z,20.80
2022-11-03T10:19:28.940Z,20.80
2022-11-03T10:21:57.315Z,20.80
2022-11-03T10:24:26.983Z,20.90
2022-11-03T10:26:57.381Z,20.90
2022-11-03T10:29:26.897Z,21.00
2022-11-03T10:31:57.147Z,21.00
2022-11-03T10:34:34.291Z,21.00
2022-11-03T10:37:20.989Z,21.00
2022-11-03T10:39:49.869Z,21.00
2022-11-03T10:42:21.726Z,21.00
2022-11-03T10:44:52.882Z,21.10
2022-11-03T10:47:33.870Z,21.10
2022-11-03T10:50:19.815Z,21.00
2022-11-03T10:52:48.442Z,21.10
2022-11-03T10:55:20.578Z,21.10
2022-11-03T10:57:55.688Z,21.10
2022-11-03T11:00:24.338Z,21.10
2022-11-03T11:02:56.879Z,21.10
2022-11-03T11:05:25.974Z,21.20
2022-11-03T11:07:55.836Z,21.20
2022-11-03T11:10:25.754Z,21.20
2022-11-03T11:13:31.161Z,21.20
2022-11-03T11:16:00.960Z,21.20
2022-11-03T11:19:12.740Z,21.20
2022-11-03T11:22:01.858Z,21.20
2022-11-03T11:24:57.837Z,21.30
2022-11-03T11:27:58.753Z,21.30
2022-11-03T11:31:03.829Z,21.30
2022-11-03T11:33:35.438Z,21.30
2022-11-03T11:36:21.477Z,21.40
2022-11-03T11:39:11.229Z,21.40
2022-11-03T11:42:11.918Z,21.40
2022-11-03T11:45:04.440Z,21.40
2022-11-03T11:47:35.980Z,21.50
2022-11-03T11:50:24.913Z,21.50
2022-11-03T11:52:59.013Z,21.50
2022-11-03T11:55:36.912Z,21.50
2022-11-03T11:58:13.828Z,21.60
2022-11-03T12:00:52.683Z,21.60
2022-11-03T12:03:30.206Z,21.60
2022-11-03T12:05:59.940Z,21.70
2022-11-03T12:08:31.086Z,21.70
2022-11-03T12:11:01.831Z,21.70
2022-11-03T12:13:51.545Z,21.70
2022-11-03T12:16:36.276Z,21.80
2022-11-03T12:19:40.976Z,21.80
2022-11-03T12:22:12.631Z,21.80
2022-11-03T12:24:51.720Z,21.80
2022-11-03T12:27:41.811Z,21.90
2022-11-03T12:30:18.944Z,21.90
2022-11-03T12:32:47.737Z,22.00
2022-11-03T12:35:55.124Z,22.00
2022-11-03T12:38:24.807Z,22.00
2022-11-03T12:40:53.855Z,22.00
2022-11-03T12:43:22.117Z,22.00
2022-11-03T12:45:50.379Z,22.00
2022-11-03T12:48:19.713Z,22.10
2022-11-03T12:50:47.941Z,22.10
2022-11-03T12:53:16.183Z,22.10
2022-11-03T12:55:45.842Z,22.20
2022-11-03T12:58:14.041Z,22.30
2022-11-03T13:00:46.348Z,22.40
2022-11-03T13:03:17.977Z,22.40
2022-11-03T13:05:49.232Z,22.40
2022-11-03T13:10:48.022Z,22.50
2022-11-03T13:13:16.241Z,22.50
2022-11-03T13:15:44.511Z,22.80
2022-11-03T13:18:14.101Z,23.20
2022-11-03T13:20:44.294Z,23.30
2022-11-03T13:23:13.706Z,23.50
2022-11-03T13:25:43.499Z,23.50
2022-11-03T13:28:13.231Z,23.40
2022-11-03T13:30:41.539Z,23.20
2022-11-03T13:33:10.215Z,23.50
2022-11-03T13:35:38.762Z,24.10
2022-11-03T13:38:06.968Z,24.10
2022-11-03T13:40:55.606Z,23.90
2022-11-03T13:43:25.301Z,23.60
2022-11-03T13:45:54.044Z,23.30
2022-11-03T13:49:20.006Z,23.10
2022-11-03T13:51:12.202Z,23.00
2022-11-03T13:56:28.758Z,22.70
2022-11-03T14:01:47.134Z,22.50
2022-11-03T14:07:04.223Z,22.20
2022-11-03T14:09:32.674Z,22.20
2022-11-03T14:12:26.816Z,22.10
2022-11-03T14:14:56.433Z,22.00
2022-11-03T14:17:25.507Z,21.90
2022-11-03T14:19:57.884Z,21.90
2022-11-03T14:22:31.496Z,21.80
2022-11-03T14:25:01.091Z,21.70
2022-11-03T14:27:29.897Z,21.60
2022-11-03T14:29:59.595Z,21.60
2022-11-03T14:32:27.964Z,21.50
2022-11-03T14:34:57.575Z,21.40
2022-11-03T14:37:27.275Z,21.40
2022-11-03T14:39:55.676Z,21.30
2022-11-03T14:42:22.992Z,21.20
2022-11-03T14:47:26.607Z,21.10
2022-11-03T14:49:54.815Z,21.00
2022-11-03T14:52:23.017Z,20.90
2022-11-03T14:54:52.257Z,20.80
2022-11-03T14:57:20.529Z,20.80
2022-11-03T14:59:53.239Z,20.70
2022-11-03T15:02:22.097Z,20.60
2022-11-03T15:04:51.776Z,20.60
2022-11-03T15:07:19.990Z,20.50
2022-11-03T15:09:48.221Z,20.50
2022-11-03T15:12:16.424Z,20.40
2022-11-03T15:14:44.623Z,20.40
2022-11-03T15:17:12.901Z,20.30
2022-11-03T15:19:41.085Z,20.20
2022-11-03T15:22:10.864Z,20.20
2022-11-03T15:27:27.260Z,20.10
2022-11-03T15:29:55.563Z,20.00
2022-11-03T15:32:23.755Z,19.90
2022-11-03T15:34:51.994Z,19.90
2022-11-03T15:37:21.663Z,19.80
2022-11-03T15:39:49.910Z,19.80
2022-11-03T15:42:18.199Z,19.70
2022-11-03T15:44:46.466Z,19.70
2022-11-03T15:47:14.632Z,19.70
2022-11-03T15:49:42.817Z,19.60
2022-11-03T15:52:11.168Z,19.60
2022-11-03T15:54:42.579Z,19.50
2022-11-03T15:57:11.150Z,19.50
2022-11-03T15:59:40.125Z,19.50
2022-11-03T16:02:35.122Z,19.40
2022-11-03T16:04:57.249Z,19.40
2022-11-03T16:07:26.082Z,19.30
2022-11-03T16:09:56.448Z,19.30
2022-11-03T16:12:25.088Z,19.20
2022-11-03T16:14:53.468Z,19.20
2022-11-03T16:17:22.823Z,19.10
2022-11-03T16:19:51.491Z,19.10
2022-11-03T16:22:19.792Z,19.00
2022-11-03T16:24:48.695Z,19.00
2022-11-03T16:27:18.389Z,18.90
2022-11-03T16:29:46.583Z,18.90
2022-11-03T16:32:14.800Z,18.80
2022-11-03T16:34:42.950Z,18.80
2022-11-03T16:37:11.286Z,18.70
2022-11-03T16:39:40.117Z,18.70
2022-11-03T16:42:08.406Z,18.60
2022-11-03T16:44:37.986Z,18.50
2022-11-03T16:47:06.622Z,18.50
2022-11-03T16:49:35.288Z,18.40
2022-11-03T16:52:03.472Z,18.40
2022-11-03T16:54:31.722Z,18.30
2022-11-03T16:56:59.942Z,18.30
2022-11-03T16:59:28.544Z,18.20
2022-11-03T17:01:58.267Z,18.20
2022-11-03T17:04:26.728Z,18.10
2022-11-03T17:06:55.037Z,18.10
2022-11-03T17:09:23.292Z,18.00
2022-11-03T17:11:51.488Z,17.90
2022-11-03T17:14:19.699Z,17.90
2022-11-03T17:16:48.740Z,17.90
2022-11-03T17:19:18.975Z,17.80
2022-11-03T17:21:47.309Z,17.80
2022-11-03T17:24:15.533Z,17.70
2022-11-03T17:26:51.685Z,17.70
2022-11-03T17:29:22.564Z,17.70
2022-11-03T17:31:51.482Z,17.70
2022-11-03T17:34:25.168Z,17.60
2022-11-03T17:36:54.293Z,17.60
2022-11-03T17:39:29.692Z,17.50
2022-11-03T17:42:13.182Z,17.50
2022-11-03T17:44:41.426Z,17.40
2022-11-03T17:47:09.709Z,17.40
2022-11-03T17:49:39.421Z,17.40
2022-11-03T17:52:11.403Z,17.30
2022-11-03T17:54:40.216Z,17.30
2022-11-03T17:57:08.486Z,17.20
2022-11-03T17:59:44.122Z,17.20
2022-11-03T18:02:17.441Z,17.10
2022-11-03T18:04:48.156Z,17.10
2022-11-03T18:07:21.786Z,17.10
2022-11-03T18:09:50.493Z,17.00
2022-11-03T18:12:39.119Z,17.00
2022-11-03T18:15:12.296Z,16.90
2022-11-03T18:17:40.694Z,16.90
2022-11-03T18:20:17.387Z,16.90
2022-11-03T18:22:46.591Z,16.80
2022-11-03T18:25:15.624Z,16.80
2022-11-03T18:27:44.328Z,16.80
2022-11-03T18:30:16.726Z,16.70
2022-11-03T18:32:46.980Z,16.70
2022-11-03T18:35:21.703Z,16.70
2022-11-03T18:37:50.355Z,16.60
2022-11-03T18:40:20.322Z,16.60
2022-11-03T18:42:48.762Z,16.60
2022-11-03T18:45:19.042Z,16.50
2022-11-03T18:47:47.270Z,16.50
2022-11-03T18:50:18.366Z,16.50
2022-11-03T18:52:48.900Z,16.50
2022-11-03T18:55:18.245Z,16.50
2022-11-03T18:57:47.061Z,16.50
2022-11-03T19:00:24.517Z,16.40
2022-11-03T19:02:52.727Z,16.40
2022-11-03T19:05:23.462Z,16.40
2022-11-03T19:07:53.156Z,16.30
2022-11-03T19:10:25.408Z,16.30
2022-11-03T19:12:53.645Z,16.30
2022-11-03T19:15:24.184Z,16.20
2022-11-03T19:17:58.123Z,16.20
2022-11-03T19:20:27.773Z,16.20
2022-11-03T19:22:56.057Z,16.20
2022-11-03T19:25:24.829Z,16.20
2022-11-03T19:27:53.181Z,16.20
2022-11-03T19:30:21.546Z,16.10
2022-11-03T19:32:51.793Z,16.10
2022-11-03T19:35:22.238Z,16.10
2022-11-03T19:37:58.767Z,16.10
2022-11-03T19:40:27.065Z,16.00
2022-11-03T19:42:54.855Z,16.00
2022-11-03T19:45:24.255Z,16.00
2022-11-03T19:48:22.554Z,16.00
2022-11-03T19:50:48.756Z,16.00
2022-11-03T19:53:23.505Z,16.00
2022-11-03T19:55:54.804Z,15.90
2022-11-03T19:58:25.072Z,15.90
2022-11-03T20:00:54.105Z,15.90
2022-11-03T20:03:23.270Z,15.90
2022-11-03T20:05:54.418Z,15.90
2022-11-03T20:08:25.814Z,15.80
2022-11-03T20:10:54.448Z,15.80
2022-11-03T20:13:24.748Z,15.80
2022-11-03T20:15:59.126Z,15.80
2022-11-03T20:18:29.121Z,15.80
2022-11-03T20:20:58.252Z,15.80
2022-11-03T20:23:30.726Z,15.70
2022-11-03T20:25:59.513Z,15.70
2022-11-03T20:28:29.559Z,15.60
2022-11-03T20:31:01.089Z,15.60
2022-11-03T20:33:29.541Z,15.60
2022-11-03T20:35:58.482Z,15.60
2022-11-03T20:38:29.111Z,15.50
2022-11-03T20:40:59.374Z,15.50
2022-11-03T20:43:30.143Z,15.50
2022-11-03T20:45:59.035Z,15.50
2022-11-03T20:48:27.335Z,15.40
2022-11-03T20:50:56.406Z,15.40
2022-11-03T20:53:27.415Z,15.50
2022-11-03T20:55:55.718Z,15.40
2022-11-03T20:58:24.005Z,15.40
2022-11-03T21:00:52.282Z,15.40
2022-11-03T21:03:37.974Z,15.40
2022-11-03T21:06:12.981Z,15.40
2022-11-03T21:08:42.692Z,15.40
2022-11-03T21:11:27.429Z,15.40
2022-11-03T21:13:57.721Z,15.40
2022-11-03T21:16:43.964Z,15.30
2022-11-03T21:19:36.840Z,15.30
2022-11-03T21:22:30.756Z,15.30
2022-11-03T21:25:04.722Z,15.20
2022-11-03T21:27:33.844Z,15.20
2022-11-03T21:30:03.147Z,15.20
2022-11-03T21:32:31.434Z,15.10
2022-11-03T21:35:01.771Z,15.10
2022-11-03T21:37:30.027Z,15.10
2022-11-03T21:39:58.288Z,15.10
2022-11-03T21:42:45.640Z,15.00
2022-11-03T21:45:14.785Z,15.00
2022-11-03T21:48:03.056Z,15.00
2022-11-03T21:50:30.325Z,15.00
2022-11-03T21:52:58.931Z,14.90
2022-11-03T21:55:28.572Z,14.90
2022-11-03T21:57:58.221Z,14.90
2022-11-03T22:00:26.548Z,14.80
2022-11-03T22:02:54.854Z,14.80
2022-11-03T22:05:23.074Z,14.80
2022-11-03T22:07:51.485Z,14.80
2022-11-03T22:10:20.601Z,14.80
2022-11-03T22:12:48.896Z,14.70
2022-11-03T22:15:35.960Z,14.70
2022-11-03T22:18:04.829Z,14.70
2022-11-03T22:20:51.103Z,14.70
2022-11-03T22:23:36.718Z,14.60
2022-11-03T22:26:22.513Z,14.60
2022-11-03T22:29:10.789Z,14.60
2022-11-03T22:31:42.175Z,14.60
2022-11-03T22:34:28.275Z,14.50
2022-11-03T22:36:56.573Z,14.50
2022-11-03T22:39:42.209Z,14.50
2022-11-03T22:42:30.318Z,14.50
2022-11-03T22:45:15.704Z,14.40
2022-11-03T22:47:45.484Z,14.40
2022-11-03T22:50:13.743Z,14.40
2022-11-03T22:52:42.029Z,14.30
2022-11-03T22:55:09.542Z,14.40
2022-11-03T22:57:37.813Z,14.30
2022-11-03T23:00:06.858Z,14.30
2022-11-03T23:02:35.231Z,14.30
2022-11-03T23:05:05.375Z,14.30
2022-11-03T23:07:40.782Z,14.30
2022-11-03T23:10:10.269Z,14.20
2022-11-03T23:12:38.601Z,14.20
2022-11-03T23:15:25.605Z,14.20
2022-11-03T23:18:07.704Z,14.20
2022-11-03T23:20:56.283Z,14.10
2022-11-03T23:23:42.009Z,14.10
2022-11-03T23:26:10.330Z,14.10
2022-11-03T23:28:38.861Z,14.10
2022-11-03T23:31:07.490Z,14.10
2022-11-03T23:33:36.036Z,14.10
2022-11-03T23:36:06.917Z,14.10
2022-11-03T23:38:36.101Z,14.00
2022-11-03T23:41:05.560Z,14.00
2022-11-03T23:43:34.398Z,13.90
2022-11-03T23:46:20.448Z,13.90
2022-11-03T23:48:48.919Z,13.90
2022-11-03T23:51:20.295Z,13.90
2022-11-03T23:53:49.154Z,13.90
2022-11-03T23:56:39.976Z,13.90
2022-11-03T23:59:08.944Z,13.80
